Toyotsu Maru — JD2431 — position and weather

sailwx.info

Track history (hours):
 
Tides and Currents Weather Stations Pressure Air Temp Water Temp Dewpoint Dewpoint Depression Visibility Wind Speed Wind Dir Waves Ship Positions

Toyotsu Maru

Last reported at 2017-Sep-21 08:30 UTC. Time now 2017-Sep-23 07:26 UTC.
Position N 34°36' E 135°05'.

Length 76 m.

Type: Cargo ship. MMSI: 431000213.

Date/timePositionNaut miles runAvg speedWind from/ knotsBaromVisibWave heightAir tempDewpointWater temp
2017-Sep-21 08:30N 34°36' E 135°05'612.0
2017-Sep-21 08:00N 34°36' E 135°12'711.5
2017-Sep-21 07:22N 34°37' E 135°21'4 5.0
2017-Sep-21 06:35N 34°37' E 135°26'0 0.0
2017-Sep-20 22:33N 34°37' E 135°26'1 3.5
2017-Sep-20 22:24N 34°37' E 135°25'3 6.4
2017-Sep-20 22:00N 34°37' E 135°22'0 0.2
2017-Sep-20 20:55N 34°37' E 135°22'0 0.0
2017-Sep-20 18:43N 34°37' E 135°22'0 0.0
2017-Sep-20 18:07N 34°37' E 135°22'0 0.0
2017-Sep-20 17:49N 34°37' E 135°22'0 0.6
2017-Sep-20 17:29N 34°36' E 135°22'511.1
2017-Sep-20 17:00N 34°32' E 135°18'  
Track history (hours):
 
Tides and Currents Weather Stations Pressure Air Temp Water Temp Dewpoint Dewpoint Depression Visibility Wind Speed Wind Dir Waves Ship Positions

Toyotsu Maru

Last reported at 2017-Sep-21 08:30 UTC. Time now 2017-Sep-23 07:26 UTC.
Position N 34°36' E 135°05'.

Length 76 m.

Type: Cargo ship. MMSI: 431000213.

Date/timePositionNaut miles runAvg speedWind from/ knotsBaromVisibWave heightAir tempDewpointWater temp
2017-Sep-21 08:30N 34°36' E 135°05'612.0
2017-Sep-21 08:00N 34°36' E 135°12'711.5
2017-Sep-21 07:22N 34°37' E 135°21'4 5.0
2017-Sep-21 06:35N 34°37' E 135°26'0 0.0
2017-Sep-20 22:33N 34°37' E 135°26'1 3.5
2017-Sep-20 22:24N 34°37' E 135°25'3 6.4
2017-Sep-20 22:00N 34°37' E 135°22'0 0.2
2017-Sep-20 20:55N 34°37' E 135°22'0 0.0
2017-Sep-20 18:43N 34°37' E 135°22'0 0.0
2017-Sep-20 18:07N 34°37' E 135°22'0 0.0
2017-Sep-20 17:49N 34°37' E 135°22'0 0.6
2017-Sep-20 17:29N 34°36' E 135°22'511.1
2017-Sep-20 17:00N 34°32' E 135°18'  

Dump ship's entire track history